createdAt,value
2022-08-17T00:00:18.285Z,11.95
2022-08-17T00:03:19.896Z,10.57
2022-08-17T00:06:02.153Z,12.43
2022-08-17T00:08:40.122Z,11.20
2022-08-17T00:11:16.587Z,12.00
2022-08-17T00:14:01.084Z,11.43
2022-08-17T00:16:57.375Z,11.98
2022-08-17T00:19:26.463Z,12.98
2022-08-17T00:22:33.653Z,12.63
2022-08-17T00:24:44.703Z,11.55
2022-08-17T00:27:11.597Z,11.60
2022-08-17T00:29:38.809Z,12.05
2022-08-17T00:33:16.005Z,11.52
2022-08-17T00:34:53.488Z,11.80
2022-08-17T00:37:20.369Z,10.93
2022-08-17T00:39:47.366Z,11.50
2022-08-17T00:42:19.652Z,12.13
2022-08-17T00:44:46.761Z,12.00
2022-08-17T00:47:13.880Z,11.63
2022-08-17T00:49:40.925Z,11.65
2022-08-17T00:52:16.722Z,11.07
2022-08-17T00:54:47.269Z,12.68
2022-08-17T00:57:18.912Z,13.85
2022-08-17T01:00:04.205Z,13.05
2022-08-17T01:02:42.112Z,12.50
2022-08-17T01:05:18.440Z,12.55
2022-08-17T01:07:47.978Z,11.65
2022-08-17T01:10:59.967Z,12.02
2022-08-17T01:13:07.237Z,12.23
2022-08-17T01:15:38.953Z,12.20
2022-08-17T01:18:09.504Z,12.40
2022-08-17T01:20:50.853Z,12.82
2022-08-17T01:23:21.233Z,13.07
2022-08-17T01:25:53.645Z,12.23
2022-08-17T01:28:33.495Z,12.27
2022-08-17T01:31:10.199Z,12.60
2022-08-17T01:33:38.503Z,13.27
2022-08-17T01:36:07.411Z,13.13
2022-08-17T01:38:39.412Z,13.07
2022-08-17T01:41:12.530Z,13.50
2022-08-17T01:43:54.521Z,11.93
2022-08-17T01:46:32.266Z,12.98
2022-08-17T01:49:00.328Z,12.77
2022-08-17T01:51:32.744Z,13.60
2022-08-17T01:54:07.641Z,12.98
2022-08-17T01:56:40.907Z,13.07
2022-08-17T01:59:08.851Z,14.45
2022-08-17T02:01:37.082Z,13.32
2022-08-17T02:04:06.462Z,13.02
2022-08-17T02:06:52.422Z,13.35
2022-08-17T02:09:26.262Z,12.50
2022-08-17T02:12:00.389Z,14.55
2022-08-17T02:14:47.385Z,13.90
2022-08-17T02:17:14.302Z,15.02
2022-08-17T02:19:41.833Z,14.88
2022-08-17T02:22:09.010Z,14.57
2022-08-17T02:24:58.149Z,14.40
2022-08-17T02:27:25.946Z,15.00
2022-08-17T02:29:53.068Z,15.27
2022-08-17T02:32:28.003Z,15.05
2022-08-17T02:34:57.956Z,15.35
2022-08-17T02:37:27.206Z,14.32
2022-08-17T02:39:57.051Z,14.80
2022-08-17T02:42:38.418Z,14.18
2022-08-17T02:45:13.867Z,14.77
2022-08-17T02:47:41.588Z,13.98
2022-08-17T02:50:11.844Z,14.70
2022-08-17T02:52:43.335Z,14.27
2022-08-17T02:55:21.984Z,15.25
2022-08-17T02:57:50.363Z,15.48
2022-08-17T03:00:34.138Z,14.25
2022-08-17T03:03:04.056Z,13.95
2022-08-17T03:05:35.444Z,13.80
2022-08-17T03:08:03.095Z,13.80
2022-08-17T03:10:30.423Z,14.27
2022-08-17T03:12:57.668Z,14.50
2022-08-17T03:15:28.814Z,13.55
2022-08-17T03:17:56.720Z,13.50
2022-08-17T03:20:28.390Z,13.48
2022-08-17T03:23:02.876Z,13.63
2022-08-17T03:25:38.795Z,14.82
2022-08-17T03:28:06.690Z,14.90
2022-08-17T03:30:34.488Z,13.48
2022-08-17T03:33:05.058Z,14.65
2022-08-17T03:35:34.969Z,12.73
2022-08-17T03:38:02.359Z,12.85
2022-08-17T03:40:34.465Z,14.18
2022-08-17T03:43:21.392Z,14.10
2022-08-17T03:46:10.898Z,15.63
2022-08-17T03:49:13.334Z,15.45
2022-08-17T03:54:43.837Z,11.68
2022-08-17T03:57:12.537Z,12.98
2022-08-17T03:59:40.905Z,12.52
2022-08-17T04:02:23.303Z,12.68
2022-08-17T04:04:51.069Z,12.15
2022-08-17T04:07:25.602Z,12.88
2022-08-17T04:09:52.484Z,14.13
2022-08-17T04:12:22.393Z,14.70
2022-08-17T04:14:52.568Z,15.65
2022-08-17T04:17:24.079Z,15.82
2022-08-17T04:19:51.154Z,16.67
2022-08-17T04:22:30.712Z,16.23
2022-08-17T04:25:06.707Z,17.60
2022-08-17T04:27:33.663Z,16.70
2022-08-17T04:30:01.482Z,16.10
2022-08-17T04:33:04.215Z,15.82
2022-08-17T04:35:23.471Z,16.20
2022-08-17T04:37:51.262Z,15.25
2022-08-17T04:40:39.128Z,15.05
2022-08-17T04:43:18.823Z,15.10
2022-08-17T04:46:05.659Z,17.20
2022-08-17T04:48:37.581Z,18.25
2022-08-17T04:51:25.148Z,16.35
2022-08-17T04:53:56.216Z,16.42
2022-08-17T04:56:25.876Z,20.73
2022-08-17T04:59:02.611Z,17.35
2022-08-17T05:01:33.845Z,17.15
2022-08-17T05:04:33.035Z,18.75
2022-08-17T05:06:54.499Z,19.27
2022-08-17T05:09:21.659Z,20.52
2022-08-17T05:11:49.345Z,22.13
2022-08-17T05:14:16.232Z,20.98
2022-08-17T05:16:43.104Z,20.33
2022-08-17T05:19:09.978Z,20.25
2022-08-17T05:21:37.727Z,19.73
2022-08-17T05:24:06.086Z,19.67
2022-08-17T05:26:52.819Z,20.27
2022-08-17T05:29:19.713Z,20.38
2022-08-17T05:31:46.604Z,20.65
2022-08-17T05:34:13.499Z,21.17
2022-08-17T05:36:42.928Z,23.13
2022-08-17T05:39:15.983Z,23.02
2022-08-17T05:41:46.567Z,22.25
2022-08-17T05:44:13.520Z,22.42
2022-08-17T05:46:48.161Z,21.25
2022-08-17T05:49:19.025Z,21.88
2022-08-17T05:52:20.005Z,21.52
2022-08-17T05:55:55.073Z,22.08
2022-08-17T05:58:29.838Z,21.17
2022-08-17T06:01:10.235Z,21.20
2022-08-17T06:04:05.591Z,21.42
2022-08-17T06:06:52.519Z,22.43
2022-08-17T06:09:46.311Z,21.52
2022-08-17T06:12:33.417Z,21.85
2022-08-17T06:15:36.015Z,21.13
2022-08-17T06:18:08.592Z,20.75
2022-08-17T06:20:53.026Z,19.33
2022-08-17T06:23:49.219Z,20.23
2022-08-17T06:29:03.459Z,20.20
2022-08-17T06:31:38.584Z,20.60
2022-08-17T06:34:10.322Z,20.80
2022-08-17T06:37:21.222Z,19.20
2022-08-17T06:40:45.601Z,19.20
2022-08-17T06:43:44.053Z,20.27
2022-08-17T06:46:25.469Z,21.10
2022-08-17T06:49:14.722Z,21.92
2022-08-17T06:51:50.614Z,22.10
2022-08-17T06:54:29.535Z,20.92
2022-08-17T06:57:20.490Z,23.08
2022-08-17T07:00:01.112Z,24.30
2022-08-17T07:02:52.537Z,22.73
2022-08-17T07:05:27.036Z,24.70
2022-08-17T07:08:14.746Z,24.60
2022-08-17T07:10:50.227Z,23.70
2022-08-17T07:13:29.343Z,23.02
2022-08-17T07:16:08.071Z,22.55
2022-08-17T07:18:35.107Z,23.42
2022-08-17T07:21:18.013Z,23.67
2022-08-17T07:24:11.130Z,21.75
2022-08-17T07:27:23.321Z,22.58
2022-08-17T07:30:11.687Z,21.92
2022-08-17T07:33:26.348Z,23.27
2022-08-17T07:35:53.702Z,22.05
2022-08-17T07:38:31.118Z,21.67
2022-08-17T07:41:00.526Z,21.73
2022-08-17T07:43:39.077Z,22.02
2022-08-17T07:46:32.180Z,21.38
2022-08-17T07:49:23.981Z,19.65
2022-08-17T07:51:51.220Z,20.27
2022-08-17T07:54:33.477Z,19.90
2022-08-17T07:57:30.245Z,19.45
2022-08-17T07:59:59.801Z,21.60
2022-08-17T08:02:38.686Z,20.02
2022-08-17T08:05:29.882Z,19.60
2022-08-17T08:08:42.794Z,18.45
2022-08-17T08:11:15.301Z,19.35
2022-08-17T08:13:45.679Z,18.10
2022-08-17T08:16:24.405Z,17.98
2022-08-17T08:18:59.857Z,18.30
2022-08-17T08:24:55.768Z,17.48
2022-08-17T08:27:42.076Z,19.13
2022-08-17T08:30:21.239Z,19.00
2022-08-17T08:33:04.274Z,19.27
2022-08-17T08:35:37.906Z,19.30
2022-08-17T08:38:49.278Z,20.45
2022-08-17T08:41:47.526Z,19.50
2022-08-17T08:44:59.796Z,18.42
2022-08-17T08:47:42.141Z,18.27
2022-08-17T08:50:40.439Z,19.65
2022-08-17T08:53:39.379Z,18.15
2022-08-17T08:56:31.758Z,18.75
2022-08-17T08:59:07.901Z,17.95
2022-08-17T09:01:57.768Z,18.45
2022-08-17T09:05:10.389Z,17.45
2022-08-17T09:10:07.211Z,17.17
2022-08-17T09:12:49.017Z,17.88
2022-08-17T09:15:22.386Z,16.90
2022-08-17T09:18:59.210Z,17.55
2022-08-17T09:21:20.950Z,17.08
2022-08-17T09:24:12.847Z,18.65
2022-08-17T09:27:06.924Z,17.20
2022-08-17T09:29:40.436Z,17.75
2022-08-17T09:32:34.119Z,18.45
2022-08-17T09:35:19.960Z,19.23
2022-08-17T09:38:00.407Z,18.20
2022-08-17T09:40:55.641Z,17.80
2022-08-17T09:43:43.892Z,18.42
2022-08-17T09:46:47.838Z,17.05
2022-08-17T09:49:31.132Z,18.13
2022-08-17T09:52:08.443Z,19.90
2022-08-17T09:54:40.563Z,18.55
2022-08-17T09:57:30.425Z,18.35
2022-08-17T10:00:23.697Z,17.77
2022-08-17T10:03:18.074Z,18.92
2022-08-17T10:05:51.247Z,19.02
2022-08-17T10:08:52.300Z,18.73
2022-08-17T10:12:02.720Z,18.58
2022-08-17T10:14:55.159Z,18.48
2022-08-17T10:17:38.625Z,20.10
2022-08-17T10:20:22.732Z,18.17
2022-08-17T10:23:19.755Z,19.85
2022-08-17T10:26:11.885Z,20.65
2022-08-17T10:29:02.873Z,19.05
2022-08-17T10:32:01.544Z,20.40
2022-08-17T10:34:54.228Z,18.92
2022-08-17T10:37:46.626Z,19.60
2022-08-17T10:40:47.939Z,20.15
2022-08-17T10:43:34.801Z,21.75
2022-08-17T10:46:30.628Z,21.65
2022-08-17T10:49:27.158Z,21.20
2022-08-17T10:52:02.042Z,19.63
2022-08-17T10:54:45.763Z,21.95
2022-08-17T10:57:31.611Z,20.48
2022-08-17T11:00:25.538Z,20.75
2022-08-17T11:02:57.520Z,19.90
2022-08-17T11:06:53.862Z,21.35
2022-08-17T11:09:43.722Z,20.85
2022-08-17T11:12:51.252Z,19.52
2022-08-17T11:15:59.477Z,22.17
2022-08-17T11:19:10.049Z,22.27
2022-08-17T11:22:22.346Z,20.45
2022-08-17T11:24:52.918Z,21.80
2022-08-17T11:27:30.323Z,22.55
2022-08-17T11:30:06.772Z,20.73
2022-08-17T11:32:53.068Z,22.52
2022-08-17T11:35:26.810Z,19.90
2022-08-17T11:38:16.215Z,21.80
2022-08-17T11:41:10.687Z,21.80
2022-08-17T11:44:10.583Z,21.27
2022-08-17T11:47:38.772Z,22.02
2022-08-17T11:50:48.694Z,21.42
2022-08-17T11:53:37.250Z,22.38
2022-08-17T11:56:09.503Z,21.70
2022-08-17T11:58:42.103Z,22.42
2022-08-17T12:01:55.759Z,20.90
2022-08-17T12:04:33.809Z,21.70
2022-08-17T12:07:16.012Z,21.33
2022-08-17T12:09:48.126Z,20.42
2022-08-17T12:12:20.347Z,19.63
2022-08-17T12:15:10.181Z,20.48
2022-08-17T12:17:52.230Z,21.05
2022-08-17T12:20:30.358Z,20.33
2022-08-17T12:23:23.444Z,19.88
2022-08-17T12:26:01.072Z,19.95
2022-08-17T12:28:32.930Z,21.20
2022-08-17T12:31:23.581Z,21.02
2022-08-17T12:33:51.851Z,22.58
2022-08-17T12:36:24.787Z,23.05
2022-08-17T12:39:14.419Z,22.25
2022-08-17T12:41:52.576Z,22.15
2022-08-17T12:44:32.000Z,24.30
2022-08-17T12:47:22.175Z,24.50
2022-08-17T12:49:53.310Z,27.20
2022-08-17T12:52:28.248Z,24.98
2022-08-17T12:55:26.406Z,25.10
2022-08-17T12:57:59.763Z,24.55
2022-08-17T13:00:47.319Z,24.30
2022-08-17T13:03:22.437Z,26.17
2022-08-17T13:05:52.429Z,24.77
2022-08-17T13:08:26.106Z,27.67
2022-08-17T13:11:03.343Z,26.50
2022-08-17T13:13:34.657Z,26.15
2022-08-17T13:16:09.377Z,26.58
2022-08-17T13:18:50.494Z,27.13
2022-08-17T13:21:26.987Z,26.80
2022-08-17T13:24:07.714Z,28.23
2022-08-17T13:26:42.788Z,28.00
2022-08-17T13:29:35.306Z,27.70
2022-08-17T13:32:13.224Z,28.40
2022-08-17T13:35:07.801Z,29.77
2022-08-17T13:37:36.562Z,30.13
2022-08-17T13:40:09.374Z,28.58
2022-08-17T13:42:52.931Z,28.60
2022-08-17T13:45:35.176Z,28.38
2022-08-17T13:48:27.002Z,29.65
2022-08-17T13:50:56.883Z,28.00
2022-08-17T13:53:26.187Z,29.55
2022-08-17T13:55:58.497Z,28.92
2022-08-17T13:58:31.943Z,28.70
2022-08-17T14:01:33.045Z,28.13
2022-08-17T14:04:06.094Z,30.60
2022-08-17T14:06:55.189Z,30.00
2022-08-17T14:09:33.557Z,31.08
2022-08-17T14:12:16.361Z,29.15
2022-08-17T14:14:44.898Z,31.73
2022-08-17T14:17:12.671Z,30.70
2022-08-17T14:19:39.733Z,31.20
2022-08-17T14:22:30.498Z,31.33
2022-08-17T14:24:59.475Z,33.03
2022-08-17T14:27:28.314Z,32.05
2022-08-17T14:29:56.383Z,33.72
2022-08-17T14:32:32.384Z,34.90
2022-08-17T14:35:00.766Z,35.67
2022-08-17T14:37:29.462Z,34.88
2022-08-17T14:40:07.311Z,35.15
2022-08-17T14:42:37.341Z,35.13
2022-08-17T14:45:07.555Z,33.65
2022-08-17T14:47:54.523Z,33.83
2022-08-17T14:50:22.830Z,34.20
2022-08-17T14:52:50.875Z,33.03
2022-08-17T14:55:18.740Z,32.92
2022-08-17T14:57:46.027Z,34.03
2022-08-17T15:00:16.476Z,34.75
2022-08-17T15:02:53.743Z,33.25
2022-08-17T15:05:24.588Z,32.00
2022-08-17T15:07:53.329Z,34.75
2022-08-17T15:10:20.870Z,34.47
2022-08-17T15:12:47.881Z,35.80
2022-08-17T15:15:17.335Z,34.03
2022-08-17T15:17:45.891Z,35.90
2022-08-17T15:20:29.538Z,34.95
2022-08-17T15:23:00.151Z,32.03
2022-08-17T15:25:33.717Z,35.28
2022-08-17T15:28:01.461Z,34.45
2022-08-17T15:30:29.091Z,33.38
2022-08-17T15:32:58.475Z,31.98
2022-08-17T15:35:29.830Z,30.88
2022-08-17T15:38:11.054Z,31.52
2022-08-17T15:40:43.488Z,31.13
2022-08-17T15:43:22.055Z,30.27
2022-08-17T15:46:03.879Z,31.23
2022-08-17T15:48:42.428Z,30.45
2022-08-17T15:51:15.983Z,30.50
2022-08-17T15:53:47.746Z,30.33
2022-08-17T15:56:15.396Z,29.05
2022-08-17T15:58:44.514Z,27.02
2022-08-17T16:01:15.013Z,29.40
2022-08-17T16:04:04.859Z,28.77
2022-08-17T16:06:34.568Z,26.60
2022-08-17T16:09:01.583Z,27.83
2022-08-17T16:11:28.528Z,26.67
2022-08-17T16:13:55.440Z,26.23
2022-08-17T16:16:24.251Z,26.42
2022-08-17T16:18:56.244Z,26.90
2022-08-17T16:21:25.932Z,27.58
2022-08-17T16:24:13.435Z,26.23
2022-08-17T16:26:42.370Z,27.60
2022-08-17T16:29:09.959Z,26.70
2022-08-17T16:31:37.761Z,27.73
2022-08-17T16:34:17.093Z,27.58
2022-08-17T16:36:54.779Z,29.77
2022-08-17T16:39:27.344Z,31.13
2022-08-17T16:41:55.973Z,31.80
2022-08-17T16:44:23.726Z,30.17
2022-08-17T16:46:50.723Z,34.60
2022-08-17T16:49:36.325Z,33.47
2022-08-17T16:52:12.542Z,34.45
2022-08-17T16:54:44.411Z,34.08
2022-08-17T16:57:13.436Z,34.55
2022-08-17T16:59:44.941Z,34.58
2022-08-17T17:02:23.995Z,34.80
2022-08-17T17:05:03.745Z,35.65
2022-08-17T17:08:16.082Z,35.83
2022-08-17T17:10:48.627Z,35.92
2022-08-17T17:13:41.237Z,36.33
2022-08-17T17:16:35.818Z,37.40
2022-08-17T17:19:34.265Z,36.20
2022-08-17T17:22:15.058Z,38.33
2022-08-17T17:25:24.530Z,39.45
2022-08-17T17:28:27.026Z,34.08
2022-08-17T17:31:23.766Z,28.90
2022-08-17T17:33:55.933Z,25.17
2022-08-17T17:36:50.124Z,24.85
2022-08-17T17:40:02.244Z,29.35
2022-08-17T17:42:32.185Z,27.55
2022-08-17T17:45:17.276Z,28.05
2022-08-17T17:47:45.157Z,30.00
2022-08-17T17:50:12.348Z,27.92
2022-08-17T17:52:57.986Z,24.77
2022-08-17T17:55:50.539Z,22.40
2022-08-17T17:58:49.265Z,22.23
2022-08-17T18:01:52.157Z,25.15
2022-08-17T18:04:36.589Z,24.50
2022-08-17T18:07:15.653Z,22.27
2022-08-17T18:10:29.323Z,21.00
2022-08-17T18:13:53.303Z,21.83
2022-08-17T18:16:21.034Z,21.48
2022-08-17T18:18:50.065Z,21.00
2022-08-17T18:21:22.943Z,20.50
2022-08-17T18:24:04.731Z,20.52
2022-08-17T18:26:45.124Z,20.58
2022-08-17T18:29:36.706Z,19.63
2022-08-17T18:32:26.851Z,20.23
2022-08-17T18:35:28.226Z,20.52
2022-08-17T18:38:20.422Z,20.65
2022-08-17T18:41:01.123Z,19.50
2022-08-17T18:43:52.716Z,18.40
2022-08-17T18:46:33.408Z,19.80
2022-08-17T18:49:10.487Z,19.80
2022-08-17T18:51:42.885Z,19.50
2022-08-17T18:54:23.883Z,18.70
2022-08-17T18:56:59.883Z,18.17
2022-08-17T18:59:48.244Z,20.13
2022-08-17T19:02:28.339Z,18.80
2022-08-17T19:05:26.480Z,19.88
2022-08-17T19:07:53.997Z,20.45
2022-08-17T19:10:28.735Z,19.48
2022-08-17T19:13:12.637Z,20.50
2022-08-17T19:16:11.821Z,19.33
2022-08-17T19:18:49.158Z,18.77
2022-08-17T19:21:23.467Z,17.63
2022-08-17T19:24:19.433Z,16.00
2022-08-17T19:30:08.276Z,16.58
2022-08-17T19:32:35.734Z,18.75
2022-08-17T19:35:06.764Z,20.10
2022-08-17T19:37:43.045Z,20.42
2022-08-17T19:40:53.231Z,19.45
2022-08-17T19:44:03.449Z,19.50
2022-08-17T19:46:48.721Z,17.52
2022-08-17T19:49:41.118Z,19.65
2022-08-17T19:52:52.735Z,19.63
2022-08-17T19:55:47.982Z,18.98
2022-08-17T19:58:39.827Z,19.47
2022-08-17T20:01:16.625Z,18.50
2022-08-17T20:04:11.539Z,18.63
2022-08-17T20:06:44.558Z,18.95
2022-08-17T20:09:33.998Z,18.55
2022-08-17T20:12:11.450Z,19.70
2022-08-17T20:14:53.926Z,18.60
2022-08-17T20:17:29.566Z,18.60
2022-08-17T20:20:29.866Z,18.52
2022-08-17T20:23:12.688Z,18.80
2022-08-17T20:25:47.510Z,19.52
2022-08-17T20:28:25.601Z,19.63
2022-08-17T20:30:54.838Z,19.90
2022-08-17T20:33:33.630Z,20.27
2022-08-17T20:36:23.988Z,20.70
2022-08-17T20:38:58.143Z,20.75
2022-08-17T20:41:30.750Z,20.08
2022-08-17T20:43:57.579Z,20.23
2022-08-17T20:46:36.431Z,18.92
2022-08-17T20:49:09.122Z,20.92
2022-08-17T20:52:10.611Z,18.88
2022-08-17T20:54:54.176Z,19.92
2022-08-17T20:57:33.129Z,20.48
2022-08-17T21:00:32.834Z,18.77
2022-08-17T21:03:24.302Z,19.13
2022-08-17T21:05:59.741Z,19.63
2022-08-17T21:08:33.325Z,19.13
2022-08-17T21:11:59.952Z,20.55
2022-08-17T21:14:33.306Z,20.13
2022-08-17T21:17:40.470Z,19.52
2022-08-17T21:20:27.627Z,19.40
2022-08-17T21:23:40.282Z,18.83
2022-08-17T21:26:29.654Z,17.98
2022-08-17T21:29:30.859Z,18.75
2022-08-17T21:32:02.565Z,18.60
2022-08-17T21:34:44.991Z,18.88
2022-08-17T21:37:22.194Z,19.88
2022-08-17T21:39:55.112Z,19.25
2022-08-17T21:42:34.599Z,21.88
2022-08-17T21:45:11.657Z,20.92
2022-08-17T21:47:43.665Z,20.98
2022-08-17T21:50:24.269Z,19.77
2022-08-17T21:52:56.041Z,18.98
2022-08-17T21:55:30.715Z,22.50
2022-08-17T21:58:11.494Z,20.15
2022-08-17T22:00:44.509Z,23.88
2022-08-17T22:03:26.044Z,24.05
2022-08-17T22:05:53.058Z,24.83
2022-08-17T22:08:25.055Z,23.40
2022-08-17T22:11:01.649Z,23.48
2022-08-17T22:13:29.574Z,22.52
2022-08-17T22:16:29.270Z,27.33
2022-08-17T22:18:58.908Z,25.15
2022-08-17T22:21:26.493Z,25.33
2022-08-17T22:24:15.965Z,27.23
2022-08-17T22:27:11.668Z,25.85
2022-08-17T22:29:59.499Z,28.08
2022-08-17T22:32:43.699Z,26.15
2022-08-17T22:35:42.645Z,26.05
2022-08-17T22:38:18.342Z,24.55
2022-08-17T22:40:51.758Z,23.83
2022-08-17T22:43:24.186Z,25.02
2022-08-17T22:45:57.655Z,25.90
2022-08-17T22:48:28.502Z,22.50
2022-08-17T22:51:21.358Z,23.80
2022-08-17T22:54:11.624Z,23.23
2022-08-17T22:57:06.155Z,23.38
2022-08-17T23:02:30.237Z,21.80
2022-08-17T23:05:10.163Z,22.63
2022-08-17T23:07:37.690Z,21.13
2022-08-17T23:10:06.448Z,21.13
2022-08-17T23:12:38.885Z,23.08
2022-08-17T23:15:15.837Z,21.77
2022-08-17T23:17:43.210Z,21.77
2022-08-17T23:20:17.627Z,21.38
2022-08-17T23:22:52.239Z,20.00
2022-08-17T23:28:01.408Z,20.90
2022-08-17T23:30:35.710Z,20.63
2022-08-17T23:33:14.430Z,22.75
2022-08-17T23:35:41.501Z,22.15
2022-08-17T23:38:11.770Z,21.73
2022-08-17T23:40:40.093Z,22.77
2022-08-17T23:43:24.448Z,22.13
2022-08-17T23:45:54.544Z,22.10
2022-08-17T23:48:35.003Z,21.60
2022-08-17T23:51:15.317Z,20.73
2022-08-17T23:53:47.518Z,20.83
2022-08-17T23:56:15.390Z,22.02
2022-08-17T23:58:44.678Z,21.98
